createdAt,value
2019-01-11T00:00:52.238Z,76.00
2019-01-11T00:03:20.671Z,75.60
2019-01-11T00:05:49.216Z,75.70
2019-01-11T00:08:17.725Z,75.20
2019-01-11T00:10:46.222Z,75.10
2019-01-11T00:13:14.664Z,74.90
2019-01-11T00:15:43.095Z,74.70
2019-01-11T00:18:11.672Z,74.70
2019-01-11T00:20:40.144Z,74.50
2019-01-11T00:23:08.653Z,74.60
2019-01-11T00:25:37.142Z,74.70
2019-01-11T00:28:05.654Z,74.50
2019-01-11T00:30:34.099Z,74.80
2019-01-11T00:33:02.507Z,74.80
2019-01-11T00:35:30.952Z,74.80
2019-01-11T00:37:59.365Z,74.70
2019-01-11T00:40:27.791Z,74.70
2019-01-11T00:42:56.230Z,74.90
2019-01-11T00:45:24.637Z,74.80
2019-01-11T00:47:53.060Z,75.00
2019-01-11T00:50:22.628Z,74.70
2019-01-11T00:52:51.120Z,75.00
2019-01-11T00:55:19.627Z,74.60
2019-01-11T00:57:48.125Z,74.20
2019-01-11T01:00:20.008Z,74.20
2019-01-11T01:02:48.666Z,74.20
2019-01-11T01:05:17.354Z,73.70
2019-01-11T01:07:46.126Z,73.60
2019-01-11T01:10:15.032Z,73.60
2019-01-11T01:12:43.440Z,73.50
2019-01-11T01:15:13.477Z,73.30
2019-01-11T01:17:42.079Z,73.10
2019-01-11T01:20:16.249Z,73.30
2019-01-11T01:22:44.936Z,73.50
2019-01-11T01:25:14.070Z,73.80
2019-01-11T01:27:42.495Z,74.20
2019-01-11T01:30:14.385Z,75.20
2019-01-11T01:32:43.039Z,74.20
2019-01-11T01:35:11.610Z,74.10
2019-01-11T01:37:40.031Z,73.90
2019-01-11T01:40:11.356Z,74.20
2019-01-11T01:42:39.930Z,74.50
2019-01-11T01:45:11.428Z,74.40
2019-01-11T01:47:39.871Z,74.50
2019-01-11T01:50:10.621Z,74.80
2019-01-11T01:52:39.312Z,74.90
2019-01-11T01:55:10.581Z,75.10
2019-01-11T01:57:39.102Z,75.30
2019-01-11T02:00:13.401Z,75.40
2019-01-11T02:02:41.931Z,75.30
2019-01-11T02:05:10.918Z,75.30
2019-01-11T02:07:39.475Z,75.90
2019-01-11T02:10:10.723Z,76.60
2019-01-11T02:12:39.179Z,76.50
2019-01-11T02:15:09.308Z,76.60
2019-01-11T02:17:37.918Z,76.90
2019-01-11T02:20:14.863Z,77.00
2019-01-11T02:22:43.764Z,77.10
2019-01-11T02:25:12.904Z,77.20
2019-01-11T02:27:41.342Z,77.50
2019-01-11T02:30:15.554Z,77.10
2019-01-11T02:32:43.981Z,77.00
2019-01-11T02:35:12.598Z,77.30
2019-01-11T02:37:41.134Z,77.60
2019-01-11T02:40:11.103Z,77.80
2019-01-11T02:42:39.557Z,77.90
2019-01-11T02:45:11.417Z,77.70
2019-01-11T02:47:39.853Z,77.50
2019-01-11T02:50:10.217Z,77.50
2019-01-11T02:52:38.641Z,77.50
2019-01-11T02:55:08.714Z,77.50
2019-01-11T02:57:37.200Z,77.60
2019-01-11T03:00:14.745Z,77.80
2019-01-11T03:02:44.703Z,78.10
2019-01-11T03:05:14.087Z,78.10
2019-01-11T03:07:42.741Z,78.10
2019-01-11T03:10:16.406Z,77.70
2019-01-11T03:12:44.881Z,77.60
2019-01-11T03:15:14.661Z,77.80
2019-01-11T03:17:43.299Z,78.00
2019-01-11T03:20:13.977Z,78.30
2019-01-11T03:22:42.461Z,78.60
2019-01-11T03:25:13.549Z,78.60
2019-01-11T03:27:41.983Z,78.90
2019-01-11T03:30:15.714Z,79.00
2019-01-11T03:32:44.221Z,78.70
2019-01-11T03:35:17.457Z,78.50
2019-01-11T03:37:47.134Z,78.90
2019-01-11T03:40:18.273Z,78.70
2019-01-11T03:42:46.830Z,79.00
2019-01-11T03:45:17.505Z,78.40
2019-01-11T03:47:46.017Z,78.40
2019-01-11T03:50:17.068Z,78.50
2019-01-11T03:52:45.731Z,78.70
2019-01-11T03:55:15.468Z,78.50
2019-01-11T03:57:44.268Z,77.60
2019-01-11T04:00:15.606Z,77.90
2019-01-11T04:02:44.097Z,77.90
2019-01-11T04:05:12.858Z,77.90
2019-01-11T04:07:41.361Z,77.60
2019-01-11T04:10:13.423Z,77.00
2019-01-11T04:12:41.861Z,77.00
2019-01-11T04:15:12.939Z,76.20
2019-01-11T04:17:41.387Z,75.80
2019-01-11T04:20:15.633Z,76.30
2019-01-11T04:22:45.899Z,76.60
2019-01-11T04:25:19.140Z,77.00
2019-01-11T04:27:48.189Z,76.70
2019-01-11T04:30:17.257Z,76.60
2019-01-11T04:32:45.872Z,76.40
2019-01-11T04:35:14.517Z,76.40
2019-01-11T04:37:43.026Z,76.30
2019-01-11T04:40:12.976Z,75.10
2019-01-11T04:42:41.432Z,74.60
2019-01-11T04:45:10.804Z,74.60
2019-01-11T04:47:39.386Z,75.30
2019-01-11T04:50:10.882Z,75.60
2019-01-11T04:52:39.317Z,75.50
2019-01-11T04:55:07.995Z,75.60
2019-01-11T04:57:36.492Z,75.10
2019-01-11T05:00:08.017Z,73.80
2019-01-11T05:02:36.434Z,73.40
2019-01-11T05:05:06.212Z,73.90
2019-01-11T05:07:34.708Z,74.10
2019-01-11T05:10:05.387Z,73.90
2019-01-11T05:12:33.829Z,74.10
2019-01-11T05:15:02.541Z,74.20
2019-01-11T05:17:30.967Z,74.40
2019-01-11T05:19:59.475Z,74.30
2019-01-11T05:22:27.914Z,74.00
2019-01-11T05:24:56.356Z,73.90
2019-01-11T05:27:24.780Z,74.20
2019-01-11T05:29:53.234Z,74.10
2019-01-11T05:32:21.672Z,74.10
2019-01-11T05:34:50.138Z,73.90
2019-01-11T05:37:18.542Z,74.20
2019-01-11T05:39:47.063Z,74.30
2019-01-11T05:42:15.504Z,74.10
2019-01-11T05:44:43.933Z,73.60
2019-01-11T05:47:12.366Z,73.60
2019-01-11T05:49:40.780Z,73.60
2019-01-11T05:52:09.214Z,72.80
2019-01-11T05:54:37.671Z,72.00
2019-01-11T05:57:06.084Z,71.90
2019-01-11T05:59:34.493Z,72.40
2019-01-11T06:02:02.957Z,73.00
2019-01-11T06:04:35.709Z,73.30
2019-01-11T06:07:11.719Z,73.30
2019-01-11T06:09:41.206Z,73.10
2019-01-11T06:12:09.728Z,72.80
2019-01-11T06:14:38.155Z,72.70
2019-01-11T06:17:06.610Z,72.70
2019-01-11T06:19:35.057Z,72.90
2019-01-11T06:22:03.652Z,72.50
2019-01-11T06:24:32.074Z,72.40
2019-01-11T06:27:00.531Z,72.20
2019-01-11T06:29:28.969Z,71.10
2019-01-11T06:31:57.401Z,71.10
2019-01-11T06:34:26.020Z,71.10
2019-01-11T06:36:54.461Z,70.80
2019-01-11T06:39:22.926Z,70.90
2019-01-11T06:41:53.013Z,70.50
2019-01-11T06:44:21.449Z,70.20
2019-01-11T06:46:50.088Z,70.00
2019-01-11T06:49:18.564Z,69.30
2019-01-11T06:51:47.004Z,68.70
2019-01-11T06:54:15.515Z,68.40
2019-01-11T06:56:43.948Z,68.00
2019-01-11T06:59:12.393Z,67.20
2019-01-11T07:01:40.817Z,67.40
2019-01-11T07:04:09.269Z,67.20
2019-01-11T07:06:39.167Z,67.60
2019-01-11T07:09:08.328Z,67.80
2019-01-11T07:11:36.824Z,68.50
2019-01-11T07:14:05.595Z,68.60
2019-01-11T07:16:34.064Z,68.60
2019-01-11T07:19:02.519Z,68.90
2019-01-11T07:21:31.056Z,69.20
2019-01-11T07:23:59.520Z,68.40
2019-01-11T07:26:28.044Z,67.80
2019-01-11T07:28:56.483Z,67.80
2019-01-11T07:31:25.381Z,68.30
2019-01-11T07:33:54.260Z,68.80
2019-01-11T07:36:29.420Z,68.90
2019-01-11T07:38:58.180Z,69.30
2019-01-11T07:41:26.610Z,69.50
2019-01-11T07:43:55.116Z,69.80
2019-01-11T07:46:23.611Z,69.90
2019-01-11T07:48:52.021Z,69.60
2019-01-11T07:51:20.529Z,69.20
2019-01-11T07:53:49.016Z,69.10
2019-01-11T07:56:17.513Z,69.10
2019-01-11T07:58:45.937Z,69.20
2019-01-11T08:01:14.453Z,69.10
2019-01-11T08:03:42.893Z,69.20
2019-01-11T08:06:11.385Z,69.60
2019-01-11T08:08:39.867Z,69.90
2019-01-11T08:11:08.444Z,70.00
2019-01-11T08:13:36.881Z,70.40
2019-01-11T08:16:05.392Z,70.80
2019-01-11T08:18:33.799Z,71.20
2019-01-11T08:21:02.317Z,71.60
2019-01-11T08:23:30.805Z,71.70
2019-01-11T08:25:59.304Z,71.60
2019-01-11T08:28:28.560Z,71.60
2019-01-11T08:30:57.014Z,71.40
2019-01-11T08:33:26.190Z,71.60
2019-01-11T08:35:54.654Z,71.40
2019-01-11T08:38:23.171Z,71.60
2019-01-11T08:40:51.599Z,72.10
2019-01-11T08:43:20.016Z,72.30
2019-01-11T08:45:48.504Z,72.60
2019-01-11T08:48:16.982Z,72.80
2019-01-11T08:50:46.978Z,72.60
2019-01-11T08:53:15.493Z,72.50
2019-01-11T08:55:44.053Z,72.50
2019-01-11T08:58:12.494Z,72.80
2019-01-11T09:00:40.913Z,73.30
2019-01-11T09:03:09.347Z,73.50
2019-01-11T09:05:37.779Z,74.60
2019-01-11T09:08:06.269Z,74.00
2019-01-11T09:10:34.698Z,74.20
2019-01-11T09:13:03.136Z,74.50
2019-01-11T09:15:31.570Z,74.20
2019-01-11T09:18:04.405Z,74.00
2019-01-11T09:20:32.892Z,74.30
2019-01-11T09:23:01.414Z,74.10
2019-01-11T09:25:29.840Z,74.30
2019-01-11T09:27:58.275Z,74.70
2019-01-11T09:30:26.696Z,75.00
2019-01-11T09:32:55.150Z,74.90
2019-01-11T09:35:23.950Z,75.10
2019-01-11T09:37:52.409Z,75.00
2019-01-11T09:40:20.910Z,75.00
2019-01-11T09:42:49.341Z,75.00
2019-01-11T09:45:17.779Z,75.20
2019-01-11T09:47:46.425Z,74.90
2019-01-11T09:50:14.833Z,75.40
2019-01-11T09:52:43.415Z,75.50
2019-01-11T09:55:12.013Z,75.20
2019-01-11T09:57:40.420Z,76.10
2019-01-11T10:00:14.489Z,76.30
2019-01-11T10:02:43.419Z,76.80
2019-01-11T10:05:12.080Z,76.70
2019-01-11T10:07:40.548Z,76.30
2019-01-11T10:10:11.587Z,76.00
2019-01-11T10:12:40.374Z,75.90
2019-01-11T10:15:11.464Z,75.70
2019-01-11T10:17:42.962Z,75.90
2019-01-11T10:20:13.045Z,76.30
2019-01-11T10:22:41.708Z,76.60
2019-01-11T10:25:10.881Z,76.70
2019-01-11T10:27:39.551Z,76.60
2019-01-11T10:30:13.850Z,76.90
2019-01-11T10:32:42.434Z,76.30
2019-01-11T10:35:11.528Z,75.80
2019-01-11T10:37:40.126Z,75.60
2019-01-11T10:40:11.731Z,75.60
2019-01-11T10:42:40.286Z,75.70
2019-01-11T10:45:11.825Z,75.80
2019-01-11T10:47:40.234Z,75.30
2019-01-11T10:50:14.696Z,75.00
2019-01-11T10:52:43.108Z,75.60
2019-01-11T10:55:13.689Z,75.40
2019-01-11T10:57:42.264Z,75.60
2019-01-11T11:00:19.537Z,75.40
2019-01-11T11:02:48.404Z,75.10
2019-01-11T11:05:16.913Z,75.00
2019-01-11T11:07:45.475Z,74.10
2019-01-11T11:10:14.830Z,74.70
2019-01-11T11:12:43.415Z,73.50
2019-01-11T11:15:14.369Z,72.80
2019-01-11T11:17:42.949Z,73.00
2019-01-11T11:20:14.010Z,72.20
2019-01-11T11:22:43.078Z,71.90
2019-01-11T11:25:14.968Z,72.00
2019-01-11T11:27:43.410Z,71.50
2019-01-11T11:30:14.169Z,71.80
2019-01-11T11:32:58.848Z,71.60
2019-01-11T11:35:27.607Z,70.90
2019-01-11T11:37:56.225Z,71.40
2019-01-11T11:40:25.281Z,71.60
2019-01-11T11:42:53.821Z,71.50
2019-01-11T11:45:22.336Z,71.50
2019-01-11T11:47:50.762Z,71.70
2019-01-11T11:50:19.335Z,72.00
2019-01-11T11:52:47.787Z,72.40
2019-01-11T11:55:16.219Z,72.50
2019-01-11T11:57:44.874Z,72.70
2019-01-11T12:00:16.718Z,72.90
2019-01-11T12:02:45.235Z,72.80
2019-01-11T12:05:13.984Z,73.50
2019-01-11T12:07:42.531Z,73.50
2019-01-11T12:10:13.607Z,73.40
2019-01-11T12:12:42.281Z,73.50
2019-01-11T12:15:12.664Z,73.50
2019-01-11T12:17:41.182Z,73.60
2019-01-11T12:22:48.257Z,73.00
2019-01-11T12:25:16.685Z,73.60
2019-01-11T12:27:45.208Z,74.00
2019-01-11T12:30:15.580Z,74.00
2019-01-11T12:32:44.116Z,73.80
2019-01-11T12:35:12.625Z,74.00
2019-01-11T12:37:41.229Z,74.50
2019-01-11T12:40:12.805Z,74.70
2019-01-11T12:42:41.364Z,75.10
2019-01-11T12:45:12.452Z,75.20
2019-01-11T12:47:40.956Z,75.40
2019-01-11T12:50:15.419Z,75.80
2019-01-11T12:52:43.881Z,76.70
2019-01-11T12:55:12.420Z,77.20
2019-01-11T12:57:40.912Z,77.50
2019-01-11T13:00:12.753Z,77.70
2019-01-11T13:02:41.210Z,78.00
2019-01-11T13:05:12.100Z,78.00
2019-01-11T13:07:40.780Z,78.00
2019-01-11T13:10:12.347Z,78.30
2019-01-11T13:12:40.938Z,79.00
2019-01-11T13:15:12.219Z,79.40
2019-01-11T13:17:40.676Z,80.00
2019-01-11T13:20:14.849Z,80.80
2019-01-11T13:22:43.738Z,80.70
2019-01-11T13:25:12.210Z,80.80
2019-01-11T13:27:40.857Z,81.30
2019-01-11T13:30:12.535Z,81.50
2019-01-11T13:32:41.079Z,81.50
2019-01-11T13:35:09.845Z,81.70
2019-01-11T13:37:38.387Z,81.40
2019-01-11T13:40:19.016Z,81.90
2019-01-11T13:42:47.506Z,82.20
2019-01-11T13:45:16.116Z,82.00
2019-01-11T13:47:44.654Z,82.00
2019-01-11T13:50:30.681Z,82.10
2019-01-11T13:52:59.105Z,81.60
2019-01-11T13:55:27.688Z,81.90
2019-01-11T13:57:56.159Z,81.70
2019-01-11T14:00:24.789Z,82.00
2019-01-11T14:02:53.509Z,82.30
2019-01-11T14:05:22.030Z,82.20
2019-01-11T14:07:50.489Z,82.60
2019-01-11T14:10:18.920Z,83.10
2019-01-11T14:12:47.387Z,82.50
2019-01-11T14:15:16.037Z,82.80
2019-01-11T14:17:44.648Z,83.10
2019-01-11T14:20:13.338Z,83.30
2019-01-11T14:22:41.789Z,83.20
2019-01-11T14:25:12.730Z,83.10
2019-01-11T14:27:41.261Z,83.00
2019-01-11T14:30:16.184Z,83.10
2019-01-11T14:32:45.008Z,83.40
2019-01-11T14:35:13.516Z,82.90
2019-01-11T14:37:42.028Z,83.10
2019-01-11T14:40:13.411Z,83.10
2019-01-11T14:42:41.880Z,82.20
2019-01-11T14:45:13.099Z,83.00
2019-01-11T14:47:41.530Z,82.70
2019-01-11T14:50:13.086Z,82.50
2019-01-11T14:52:41.646Z,82.50
2019-01-11T14:55:10.391Z,82.30
2019-01-11T14:57:38.955Z,82.80
2019-01-11T15:00:10.472Z,83.30
2019-01-11T15:02:38.995Z,83.30
2019-01-11T15:05:09.468Z,83.50
2019-01-11T15:07:37.957Z,83.30
2019-01-11T15:10:09.737Z,83.00
2019-01-11T15:12:38.193Z,83.00
2019-01-11T15:15:07.988Z,83.30
2019-01-11T15:17:36.498Z,83.80
2019-01-11T15:20:08.039Z,83.90
2019-01-11T15:22:36.453Z,83.80
2019-01-11T15:25:07.075Z,83.70
2019-01-11T15:27:35.565Z,83.70
2019-01-11T15:30:06.853Z,84.20
2019-01-11T15:32:35.256Z,84.50
2019-01-11T15:35:05.048Z,84.40
2019-01-11T15:37:33.493Z,84.50
2019-01-11T15:40:02.033Z,84.70
2019-01-11T15:42:30.474Z,84.40
2019-01-11T15:44:58.936Z,84.60
2019-01-11T15:47:27.456Z,85.60
2019-01-11T15:49:55.981Z,84.60
2019-01-11T15:52:24.431Z,84.50
2019-01-11T15:54:52.915Z,84.40
2019-01-11T15:57:24.962Z,84.70
2019-01-11T16:00:01.391Z,84.60
2019-01-11T16:02:29.915Z,84.50
2019-01-11T16:04:59.804Z,84.20
2019-01-11T16:07:28.462Z,84.40
2019-01-11T16:09:58.937Z,84.40
2019-01-11T16:12:30.010Z,84.70
2019-01-11T16:15:01.557Z,84.60
2019-01-11T16:17:31.948Z,84.50
2019-01-11T16:20:00.392Z,84.60
2019-01-11T16:22:28.924Z,84.60
2019-01-11T16:24:57.354Z,84.60
2019-01-11T16:27:26.384Z,84.70
2019-01-11T16:29:54.860Z,84.50
2019-01-11T16:32:23.385Z,84.30
2019-01-11T16:34:51.795Z,84.30
2019-01-11T16:37:20.247Z,84.30
2019-01-11T16:39:48.660Z,84.50
2019-01-11T16:42:17.093Z,84.60
2019-01-11T16:44:45.556Z,85.00
2019-01-11T16:47:13.994Z,84.70
2019-01-11T16:49:42.449Z,84.60
2019-01-11T16:52:15.334Z,84.90
2019-01-11T16:54:41.074Z,85.30
2019-01-11T16:57:09.517Z,85.50
2019-01-11T16:59:37.954Z,85.30
2019-01-11T17:02:06.375Z,85.20
2019-01-11T17:04:34.813Z,85.30
2019-01-11T17:07:03.265Z,85.40
2019-01-11T17:09:31.723Z,85.20
2019-01-11T17:12:00.207Z,85.10
2019-01-11T17:14:28.761Z,85.00
2019-01-11T17:16:57.200Z,84.90
2019-01-11T17:19:25.654Z,85.10
2019-01-11T17:21:54.081Z,85.00
2019-01-11T17:24:22.536Z,85.20
2019-01-11T17:26:50.989Z,85.40
2019-01-11T17:29:19.705Z,85.30
2019-01-11T17:31:48.274Z,85.40
2019-01-11T17:34:16.807Z,85.20
2019-01-11T17:36:45.267Z,85.40
2019-01-11T17:39:13.841Z,85.50
2019-01-11T17:41:42.330Z,85.60
2019-01-11T17:44:10.835Z,85.80
2019-01-11T17:46:39.294Z,85.50
2019-01-11T17:49:07.830Z,85.60
2019-01-11T17:51:36.298Z,85.60
2019-01-11T17:54:04.966Z,85.50
2019-01-11T17:56:33.460Z,85.50
2019-01-11T17:59:01.905Z,85.50
2019-01-11T18:01:30.438Z,85.00
2019-01-11T18:03:58.986Z,85.00
2019-01-11T18:06:27.642Z,84.90
2019-01-11T18:08:56.170Z,85.00
2019-01-11T18:11:24.774Z,85.20
2019-01-11T18:13:53.215Z,85.30
2019-01-11T18:16:21.747Z,85.50
2019-01-11T18:18:50.202Z,85.50
2019-01-11T18:21:18.703Z,85.40
2019-01-11T18:23:47.129Z,85.20
2019-01-11T18:26:15.739Z,85.20
2019-01-11T18:28:44.198Z,85.30
2019-01-11T18:31:12.818Z,85.00
2019-01-11T18:33:41.241Z,85.20
2019-01-11T18:36:09.729Z,85.00
2019-01-11T18:38:38.304Z,84.80
2019-01-11T18:41:06.791Z,85.00
2019-01-11T18:43:35.277Z,84.80
2019-01-11T18:46:03.784Z,84.90
2019-01-11T18:48:32.242Z,85.10
2019-01-11T18:51:00.689Z,85.50
2019-01-11T18:53:29.269Z,85.60
2019-01-11T18:55:57.821Z,85.80
2019-01-11T18:58:26.308Z,85.50
2019-01-11T19:00:54.808Z,85.30
2019-01-11T19:03:23.436Z,85.50
2019-01-11T19:05:51.949Z,86.40
2019-01-11T19:08:20.390Z,85.40
2019-01-11T19:10:48.922Z,85.50
2019-01-11T19:13:17.541Z,85.60
2019-01-11T19:15:46.034Z,85.50
2019-01-11T19:18:14.811Z,85.40
2019-01-11T19:20:43.390Z,85.30
2019-01-11T19:23:12.041Z,85.30
2019-01-11T19:25:40.586Z,85.40
2019-01-11T19:28:09.309Z,85.50
2019-01-11T19:30:37.745Z,85.60
2019-01-11T19:33:06.262Z,85.60
2019-01-11T19:35:34.855Z,85.50
2019-01-11T19:38:03.402Z,85.60
2019-01-11T19:40:31.917Z,86.20
2019-01-11T19:43:00.390Z,86.30
2019-01-11T19:45:28.999Z,86.20
2019-01-11T19:47:57.514Z,86.20
2019-01-11T19:50:25.982Z,85.90
2019-01-11T19:52:54.565Z,86.00
2019-01-11T19:55:23.165Z,86.10
2019-01-11T19:57:51.714Z,86.10
2019-01-11T20:00:22.888Z,86.00
2019-01-11T20:02:51.764Z,86.30
2019-01-11T20:05:20.703Z,87.40
2019-01-11T20:07:49.474Z,86.30
2019-01-11T20:10:23.777Z,86.30
2019-01-11T20:12:52.319Z,86.50
2019-01-11T20:15:21.110Z,86.50
2019-01-11T20:17:50.067Z,86.50
2019-01-11T20:20:18.693Z,86.50
2019-01-11T20:22:47.361Z,86.60
2019-01-11T20:25:18.032Z,86.80
2019-01-11T20:27:46.689Z,86.40
2019-01-11T20:30:20.703Z,86.30
2019-01-11T20:32:49.369Z,86.30
2019-01-11T20:35:18.265Z,86.00
2019-01-11T20:37:46.958Z,86.10
2019-01-11T20:40:16.647Z,86.30
2019-01-11T20:42:45.292Z,86.00
2019-01-11T20:45:15.986Z,86.00
2019-01-11T20:47:44.524Z,85.60
2019-01-11T20:50:15.754Z,85.50
2019-01-11T20:52:44.310Z,85.60
2019-01-11T20:55:13.229Z,85.90
2019-01-11T20:57:41.817Z,85.60
2019-01-11T21:00:16.325Z,85.60
2019-01-11T21:02:44.946Z,85.50
2019-01-11T21:05:13.895Z,85.70
2019-01-11T21:07:42.476Z,85.60
2019-01-11T21:10:12.558Z,85.50
2019-01-11T21:12:41.122Z,85.80
2019-01-11T21:15:12.891Z,85.40
2019-01-11T21:17:41.640Z,85.20
2019-01-11T21:20:13.423Z,85.40
2019-01-11T21:22:42.178Z,85.20
2019-01-11T21:25:12.817Z,85.50
2019-01-11T21:27:41.401Z,86.30
2019-01-11T21:30:18.585Z,85.80
2019-01-11T21:32:47.205Z,85.80
2019-01-11T21:35:15.849Z,85.90
2019-01-11T21:37:44.526Z,86.20
2019-01-11T21:40:16.141Z,86.50
2019-01-11T21:42:44.616Z,86.60
2019-01-11T21:45:13.544Z,86.40
2019-01-11T21:47:42.034Z,86.70
2019-01-11T21:50:13.837Z,86.60
2019-01-11T21:52:42.303Z,86.70
2019-01-11T21:55:11.797Z,86.70
2019-01-11T21:57:40.423Z,86.90
2019-01-11T22:00:11.987Z,87.00
2019-01-11T22:02:40.431Z,88.20
2019-01-11T22:05:09.319Z,87.20
2019-01-11T22:07:37.837Z,87.10
2019-01-11T22:10:09.406Z,87.40
2019-01-11T22:12:38.012Z,87.60
2019-01-11T22:15:08.990Z,87.60
2019-01-11T22:17:37.441Z,87.60
2019-01-11T22:20:09.118Z,87.60
2019-01-11T22:22:37.694Z,88.00
2019-01-11T22:25:08.111Z,87.70
2019-01-11T22:27:36.623Z,88.00
2019-01-11T22:30:11.332Z,88.30
2019-01-11T22:32:39.842Z,88.30
2019-01-11T22:35:08.470Z,88.30
2019-01-11T22:37:36.908Z,88.40
2019-01-11T22:40:14.061Z,88.10
2019-01-11T22:42:42.504Z,88.00
2019-01-11T22:45:13.398Z,88.20
2019-01-11T22:47:42.025Z,87.90
2019-01-11T22:50:13.525Z,88.30
2019-01-11T22:52:42.218Z,88.40
2019-01-11T22:55:18.254Z,88.30
2019-01-11T22:57:46.766Z,88.10
2019-01-11T23:00:36.417Z,87.80
2019-01-11T23:03:08.306Z,87.70
2019-01-11T23:05:38.488Z,87.80
2019-01-11T23:08:08.144Z,88.80
2019-01-11T23:10:48.764Z,87.80
2019-01-11T23:13:17.223Z,87.90
2019-01-11T23:15:45.790Z,88.00
2019-01-11T23:18:14.307Z,87.90
2019-01-11T23:20:42.782Z,87.60
2019-01-11T23:23:11.397Z,87.50
2019-01-11T23:25:39.824Z,87.60
2019-01-11T23:28:08.472Z,87.60
2019-01-11T23:30:36.905Z,87.60
2019-01-11T23:33:05.390Z,87.90
2019-01-11T23:35:33.910Z,87.70
2019-01-11T23:38:02.448Z,87.70
2019-01-11T23:40:30.857Z,87.80
2019-01-11T23:42:59.430Z,87.80
2019-01-11T23:45:27.912Z,87.40
2019-01-11T23:47:56.364Z,87.50
2019-01-11T23:50:24.815Z,87.40
2019-01-11T23:52:53.258Z,87.50
2019-01-11T23:55:21.680Z,87.40
2019-01-11T23:57:50.110Z,87.30
